sensor_id;sensor_type;location;lat;lon;timestamp;temperature;humidity
25438;DHT22;13364;49.084;9.978;2023-03-23T00:01:57;11.80;68.70
25438;DHT22;13364;49.084;9.978;2023-03-23T00:04:23;11.90;69.50
25438;DHT22;13364;49.084;9.978;2023-03-23T00:06:51;11.80;69.00
25438;DHT22;13364;49.084;9.978;2023-03-23T00:09:17;11.80;69.50
25438;DHT22;13364;49.084;9.978;2023-03-23T00:11:49;11.80;68.60
25438;DHT22;13364;49.084;9.978;2023-03-23T00:14:16;11.80;68.90
25438;DHT22;13364;49.084;9.978;2023-03-23T00:16:48;11.70;69.00
25438;DHT22;13364;49.084;9.978;2023-03-23T00:19:15;11.70;69.30
25438;DHT22;13364;49.084;9.978;2023-03-23T00:21:42;11.70;69.40
25438;DHT22;13364;49.084;9.978;2023-03-23T00:24:16;11.70;69.60
25438;DHT22;13364;49.084;9.978;2023-03-23T00:26:47;11.60;69.70
25438;DHT22;13364;49.084;9.978;2023-03-23T00:29:16;11.60;70.60
25438;DHT22;13364;49.084;9.978;2023-03-23T00:31:43;11.50;71.30
25438;DHT22;13364;49.084;9.978;2023-03-23T00:34:17;11.40;71.70
25438;DHT22;13364;49.084;9.978;2023-03-23T00:36:49;11.40;72.30
25438;DHT22;13364;49.084;9.978;2023-03-23T00:39:16;11.40;72.60
25438;DHT22;13364;49.084;9.978;2023-03-23T00:41:44;11.50;72.90
25438;DHT22;13364;49.084;9.978;2023-03-23T00:44:10;11.40;72.70
25438;DHT22;13364;49.084;9.978;2023-03-23T00:46:46;11.30;73.40
25438;DHT22;13364;49.084;9.978;2023-03-23T00:49:19;11.20;73.80
25438;DHT22;13364;49.084;9.978;2023-03-23T00:51:45;11.20;74.20
25438;DHT22;13364;49.084;9.978;2023-03-23T00:54:12;11.10;74.00
25438;DHT22;13364;49.084;9.978;2023-03-23T00:56:38;11.10;74.40
25438;DHT22;13364;49.084;9.978;2023-03-23T00:59:07;11.10;74.20
25438;DHT22;13364;49.084;9.978;2023-03-23T01:01:33;11.10;74.40
25438;DHT22;13364;49.084;9.978;2023-03-23T01:03:59;11.10;74.30
25438;DHT22;13364;49.084;9.978;2023-03-23T01:06:41;11.10;74.10
25438;DHT22;13364;49.084;9.978;2023-03-23T01:09:11;11.10;73.50
25438;DHT22;13364;49.084;9.978;2023-03-23T01:11:41;11.20;73.60
25438;DHT22;13364;49.084;9.978;2023-03-23T01:14:07;11.20;73.30
25438;DHT22;13364;49.084;9.978;2023-03-23T01:16:33;11.30;73.20
25438;DHT22;13364;49.084;9.978;2023-03-23T01:18:59;11.30;72.80
25438;DHT22;13364;49.084;9.978;2023-03-23T01:21:25;11.30;72.50
25438;DHT22;13364;49.084;9.978;2023-03-23T01:23:51;11.30;72.60
25438;DHT22;13364;49.084;9.978;2023-03-23T01:26:20;11.40;72.40
25438;DHT22;13364;49.084;9.978;2023-03-23T01:28:47;11.40;72.30
25438;DHT22;13364;49.084;9.978;2023-03-23T01:31:18;11.40;72.20
25438;DHT22;13364;49.084;9.978;2023-03-23T01:33:46;11.40;72.00
25438;DHT22;13364;49.084;9.978;2023-03-23T01:36:15;11.40;72.10
25438;DHT22;13364;49.084;9.978;2023-03-23T01:38:44;11.40;72.10
25438;DHT22;13364;49.084;9.978;2023-03-23T01:41:11;11.40;72.20
25438;DHT22;13364;49.084;9.978;2023-03-23T01:43:58;11.40;72.20
25438;DHT22;13364;49.084;9.978;2023-03-23T01:46:26;11.40;72.20
25438;DHT22;13364;49.084;9.978;2023-03-23T01:48:54;11.40;72.00
25438;DHT22;13364;49.084;9.978;2023-03-23T01:51:21;11.40;71.50
25438;DHT22;13364;49.084;9.978;2023-03-23T01:53:52;11.40;71.50
25438;DHT22;13364;49.084;9.978;2023-03-23T01:56:22;11.40;71.20
25438;DHT22;13364;49.084;9.978;2023-03-23T01:58:53;11.50;71.20
25438;DHT22;13364;49.084;9.978;2023-03-23T02:01:22;11.50;71.00
25438;DHT22;13364;49.084;9.978;2023-03-23T02:03:52;11.50;70.90
25438;DHT22;13364;49.084;9.978;2023-03-23T02:06:19;11.50;70.60
25438;DHT22;13364;49.084;9.978;2023-03-23T02:09:04;11.50;70.40
25438;DHT22;13364;49.084;9.978;2023-03-23T02:11:32;11.50;70.30
25438;DHT22;13364;49.084;9.978;2023-03-23T02:13:59;11.60;70.10
25438;DHT22;13364;49.084;9.978;2023-03-23T02:16:39;11.60;70.20
25438;DHT22;13364;49.084;9.978;2023-03-23T02:28:14;11.60;69.90
25438;DHT22;13364;49.084;9.978;2023-03-23T02:33:35;11.70;69.60
25438;DHT22;13364;49.084;9.978;2023-03-23T02:36:40;11.70;69.50
25438;DHT22;13364;49.084;9.978;2023-03-23T02:44:35;11.70;69.40
25438;DHT22;13364;49.084;9.978;2023-03-23T02:47:05;11.80;69.40
25438;DHT22;13364;49.084;9.978;2023-03-23T02:49:34;11.80;69.10
25438;DHT22;13364;49.084;9.978;2023-03-23T02:52:08;11.80;69.30
25438;DHT22;13364;49.084;9.978;2023-03-23T02:54:38;11.80;69.40
25438;DHT22;13364;49.084;9.978;2023-03-23T02:57:05;11.80;69.10
25438;DHT22;13364;49.084;9.978;2023-03-23T02:59:31;11.70;69.20
25438;DHT22;13364;49.084;9.978;2023-03-23T03:02:11;11.70;69.00
25438;DHT22;13364;49.084;9.978;2023-03-23T03:04:39;11.70;68.60
25438;DHT22;13364;49.084;9.978;2023-03-23T03:07:42;11.70;68.30
25438;DHT22;13364;49.084;9.978;2023-03-23T03:13:30;11.80;68.20
25438;DHT22;13364;49.084;9.978;2023-03-23T03:16:17;11.80;67.80
25438;DHT22;13364;49.084;9.978;2023-03-23T03:21:12;11.70;68.00
25438;DHT22;13364;49.084;9.978;2023-03-23T03:23:43;11.70;67.60
25438;DHT22;13364;49.084;9.978;2023-03-23T03:26:13;11.70;68.10
25438;DHT22;13364;49.084;9.978;2023-03-23T03:28:48;11.70;68.00
25438;DHT22;13364;49.084;9.978;2023-03-23T03:31:32;11.60;68.00
25438;DHT22;13364;49.084;9.978;2023-03-23T03:34:00;11.60;68.00
25438;DHT22;13364;49.084;9.978;2023-03-23T03:36:30;11.60;68.20
25438;DHT22;13364;49.084;9.978;2023-03-23T03:39:09;11.60;68.40
25438;DHT22;13364;49.084;9.978;2023-03-23T03:41:37;11.70;68.70
25438;DHT22;13364;49.084;9.978;2023-03-23T03:44:04;11.70;69.00
25438;DHT22;13364;49.084;9.978;2023-03-23T03:46:31;11.80;68.80
25438;DHT22;13364;49.084;9.978;2023-03-23T03:48:58;11.80;68.80
25438;DHT22;13364;49.084;9.978;2023-03-23T03:51:26;11.80;68.60
25438;DHT22;13364;49.084;9.978;2023-03-23T03:53:53;11.80;68.30
25438;DHT22;13364;49.084;9.978;2023-03-23T03:56:19;11.80;68.10
25438;DHT22;13364;49.084;9.978;2023-03-23T03:58:57;11.90;67.80
25438;DHT22;13364;49.084;9.978;2023-03-23T04:01:46;11.90;67.60
25438;DHT22;13364;49.084;9.978;2023-03-23T04:04:12;12.00;67.40
25438;DHT22;13364;49.084;9.978;2023-03-23T04:06:38;12.00;67.30
25438;DHT22;13364;49.084;9.978;2023-03-23T04:09:05;12.00;66.90
25438;DHT22;13364;49.084;9.978;2023-03-23T04:11:33;12.10;66.90
25438;DHT22;13364;49.084;9.978;2023-03-23T04:14:19;12.10;66.70
25438;DHT22;13364;49.084;9.978;2023-03-23T04:16:45;12.00;67.00
25438;DHT22;13364;49.084;9.978;2023-03-23T04:19:10;12.00;66.50
25438;DHT22;13364;49.084;9.978;2023-03-23T04:21:38;12.10;66.30
25438;DHT22;13364;49.084;9.978;2023-03-23T04:24:04;12.10;66.40
25438;DHT22;13364;49.084;9.978;2023-03-23T04:26:30;12.10;66.20
25438;DHT22;13364;49.084;9.978;2023-03-23T04:29:02;12.10;66.60
25438;DHT22;13364;49.084;9.978;2023-03-23T04:31:47;12.10;66.40
25438;DHT22;13364;49.084;9.978;2023-03-23T04:34:30;12.10;66.30
25438;DHT22;13364;49.084;9.978;2023-03-23T04:36:59;12.10;66.40
25438;DHT22;13364;49.084;9.978;2023-03-23T04:39:28;12.20;66.50
25438;DHT22;13364;49.084;9.978;2023-03-23T04:41:57;12.20;66.50
25438;DHT22;13364;49.084;9.978;2023-03-23T04:44:45;12.20;66.40
25438;DHT22;13364;49.084;9.978;2023-03-23T04:47:24;12.30;66.40
25438;DHT22;13364;49.084;9.978;2023-03-23T04:49:57;12.30;66.50
25438;DHT22;13364;49.084;9.978;2023-03-23T04:52:32;12.30;66.70
25438;DHT22;13364;49.084;9.978;2023-03-23T04:55:02;12.40;66.50
25438;DHT22;13364;49.084;9.978;2023-03-23T04:57:29;12.40;66.50
25438;DHT22;13364;49.084;9.978;2023-03-23T05:00:34;12.50;66.30
25438;DHT22;13364;49.084;9.978;2023-03-23T05:03:02;12.50;66.20
25438;DHT22;13364;49.084;9.978;2023-03-23T05:05:29;12.50;66.10
25438;DHT22;13364;49.084;9.978;2023-03-23T05:07:58;12.50;66.00
25438;DHT22;13364;49.084;9.978;2023-03-23T05:10:26;12.50;66.50
25438;DHT22;13364;49.084;9.978;2023-03-23T05:12:56;12.50;66.20
25438;DHT22;13364;49.084;9.978;2023-03-23T05:15:22;12.50;66.10
25438;DHT22;13364;49.084;9.978;2023-03-23T05:17:53;12.50;66.20
25438;DHT22;13364;49.084;9.978;2023-03-23T05:20:20;12.40;66.40
25438;DHT22;13364;49.084;9.978;2023-03-23T05:22:49;12.40;66.60
25438;DHT22;13364;49.084;9.978;2023-03-23T05:25:21;12.40;66.70
25438;DHT22;13364;49.084;9.978;2023-03-23T05:27:56;12.40;67.00
25438;DHT22;13364;49.084;9.978;2023-03-23T05:30:39;12.40;66.90
25438;DHT22;13364;49.084;9.978;2023-03-23T05:33:08;12.40;67.10
25438;DHT22;13364;49.084;9.978;2023-03-23T05:35:50;12.30;67.40
25438;DHT22;13364;49.084;9.978;2023-03-23T05:38:22;12.30;67.50
25438;DHT22;13364;49.084;9.978;2023-03-23T05:40:48;12.20;67.80
25438;DHT22;13364;49.084;9.978;2023-03-23T05:43:17;12.20;68.20
25438;DHT22;13364;49.084;9.978;2023-03-23T05:45:57;12.30;67.90
25438;DHT22;13364;49.084;9.978;2023-03-23T05:48:23;12.30;68.10
25438;DHT22;13364;49.084;9.978;2023-03-23T05:50:49;12.20;68.40
25438;DHT22;13364;49.084;9.978;2023-03-23T05:53:17;12.20;68.40
25438;DHT22;13364;49.084;9.978;2023-03-23T05:55:43;12.20;68.60
25438;DHT22;13364;49.084;9.978;2023-03-23T05:58:24;12.10;68.60
25438;DHT22;13364;49.084;9.978;2023-03-23T06:00:50;12.10;68.60
25438;DHT22;13364;49.084;9.978;2023-03-23T06:03:25;12.20;68.70
25438;DHT22;13364;49.084;9.978;2023-03-23T06:06:11;12.20;68.70
25438;DHT22;13364;49.084;9.978;2023-03-23T06:08:52;12.20;68.90
25438;DHT22;13364;49.084;9.978;2023-03-23T06:11:26;12.20;68.50
25438;DHT22;13364;49.084;9.978;2023-03-23T06:14:10;12.20;68.60
25438;DHT22;13364;49.084;9.978;2023-03-23T06:16:37;12.20;68.70
25438;DHT22;13364;49.084;9.978;2023-03-23T06:19:08;12.20;68.40
25438;DHT22;13364;49.084;9.978;2023-03-23T06:21:55;12.20;68.70
25438;DHT22;13364;49.084;9.978;2023-03-23T06:24:38;12.20;68.60
25438;DHT22;13364;49.084;9.978;2023-03-23T06:27:04;12.20;68.80
25438;DHT22;13364;49.084;9.978;2023-03-23T06:29:30;12.20;69.00
25438;DHT22;13364;49.084;9.978;2023-03-23T06:32:00;12.20;68.90
25438;DHT22;13364;49.084;9.978;2023-03-23T06:34:28;12.20;68.80
25438;DHT22;13364;49.084;9.978;2023-03-23T06:37:14;12.30;68.80
25438;DHT22;13364;49.084;9.978;2023-03-23T06:39:54;12.30;68.80
25438;DHT22;13364;49.084;9.978;2023-03-23T06:42:35;12.40;68.90
25438;DHT22;13364;49.084;9.978;2023-03-23T06:45:21;12.40;68.70
25438;DHT22;13364;49.084;9.978;2023-03-23T06:48:25;12.50;68.60
25438;DHT22;13364;49.084;9.978;2023-03-23T06:50:52;12.50;68.70
25438;DHT22;13364;49.084;9.978;2023-03-23T06:56:13;12.60;68.90
25438;DHT22;13364;49.084;9.978;2023-03-23T06:58:41;12.60;69.60
25438;DHT22;13364;49.084;9.978;2023-03-23T07:01:12;12.60;69.80
25438;DHT22;13364;49.084;9.978;2023-03-23T07:03:43;12.60;70.00
25438;DHT22;13364;49.084;9.978;2023-03-23T07:06:12;12.60;69.70
25438;DHT22;13364;49.084;9.978;2023-03-23T07:08:46;12.60;69.60
25438;DHT22;13364;49.084;9.978;2023-03-23T07:11:17;12.60;69.70
25438;DHT22;13364;49.084;9.978;2023-03-23T07:13:43;12.60;70.10
25438;DHT22;13364;49.084;9.978;2023-03-23T07:16:09;12.60;70.60
25438;DHT22;13364;49.084;9.978;2023-03-23T07:18:37;12.70;70.70
25438;DHT22;13364;49.084;9.978;2023-03-23T07:21:04;12.70;70.60
25438;DHT22;13364;49.084;9.978;2023-03-23T07:23:31;12.70;70.60
25438;DHT22;13364;49.084;9.978;2023-03-23T07:26:03;12.70;71.70
25438;DHT22;13364;49.084;9.978;2023-03-23T07:29:03;12.80;71.40
25438;DHT22;13364;49.084;9.978;2023-03-23T07:31:35;12.80;71.50
25438;DHT22;13364;49.084;9.978;2023-03-23T07:34:02;12.90;71.80
25438;DHT22;13364;49.084;9.978;2023-03-23T07:36:38;13.00;72.70
25438;DHT22;13364;49.084;9.978;2023-03-23T07:39:07;13.10;72.50
25438;DHT22;13364;49.084;9.978;2023-03-23T07:41:33;13.10;73.20
25438;DHT22;13364;49.084;9.978;2023-03-23T07:44:03;13.10;71.70
25438;DHT22;13364;49.084;9.978;2023-03-23T07:46:33;13.10;72.30
25438;DHT22;13364;49.084;9.978;2023-03-23T07:49:18;13.20;72.10
25438;DHT22;13364;49.084;9.978;2023-03-23T07:51:52;13.20;71.90
25438;DHT22;13364;49.084;9.978;2023-03-23T07:54:18;13.20;71.10
25438;DHT22;13364;49.084;9.978;2023-03-23T07:57:19;13.20;71.30
25438;DHT22;13364;49.084;9.978;2023-03-23T07:59:50;13.20;71.40
25438;DHT22;13364;49.084;9.978;2023-03-23T08:02:16;13.20;71.30
25438;DHT22;13364;49.084;9.978;2023-03-23T08:05:01;13.20;71.60
25438;DHT22;13364;49.084;9.978;2023-03-23T08:07:47;13.30;71.70
25438;DHT22;13364;49.084;9.978;2023-03-23T08:10:29;13.50;71.60
25438;DHT22;13364;49.084;9.978;2023-03-23T08:13:04;13.60;71.00
25438;DHT22;13364;49.084;9.978;2023-03-23T08:15:43;13.50;71.10
25438;DHT22;13364;49.084;9.978;2023-03-23T08:18:30;13.50;71.30
25438;DHT22;13364;49.084;9.978;2023-03-23T08:21:26;13.50;71.80
25438;DHT22;13364;49.084;9.978;2023-03-23T08:24:21;13.50;71.60
25438;DHT22;13364;49.084;9.978;2023-03-23T08:27:25;13.40;71.40
25438;DHT22;13364;49.084;9.978;2023-03-23T08:30:05;13.40;72.00
25438;DHT22;13364;49.084;9.978;2023-03-23T08:33:05;13.40;71.90
25438;DHT22;13364;49.084;9.978;2023-03-23T08:35:57;13.40;72.50
25438;DHT22;13364;49.084;9.978;2023-03-23T08:39:00;13.40;73.30
25438;DHT22;13364;49.084;9.978;2023-03-23T08:41:41;13.60;72.70
25438;DHT22;13364;49.084;9.978;2023-03-23T08:44:18;13.60;71.50
25438;DHT22;13364;49.084;9.978;2023-03-23T08:47:05;13.60;71.90
25438;DHT22;13364;49.084;9.978;2023-03-23T08:49:52;13.70;71.60
25438;DHT22;13364;49.084;9.978;2023-03-23T08:52:38;13.80;70.50
25438;DHT22;13364;49.084;9.978;2023-03-23T08:55:22;14.00;70.70
25438;DHT22;13364;49.084;9.978;2023-03-23T08:58:19;14.20;69.80
25438;DHT22;13364;49.084;9.978;2023-03-23T09:01:20;14.30;69.10
25438;DHT22;13364;49.084;9.978;2023-03-23T09:03:55;14.40;69.70
25438;DHT22;13364;49.084;9.978;2023-03-23T09:06:41;14.40;68.50
25438;DHT22;13364;49.084;9.978;2023-03-23T09:09:08;14.60;69.00
25438;DHT22;13364;49.084;9.978;2023-03-23T09:11:35;14.60;67.50
25438;DHT22;13364;49.084;9.978;2023-03-23T09:14:05;14.60;67.50
25438;DHT22;13364;49.084;9.978;2023-03-23T09:16:32;14.60;67.70
25438;DHT22;13364;49.084;9.978;2023-03-23T09:18:59;14.70;67.70
25438;DHT22;13364;49.084;9.978;2023-03-23T09:21:47;14.70;68.60
25438;DHT22;13364;49.084;9.978;2023-03-23T09:24:13;14.60;69.10
25438;DHT22;13364;49.084;9.978;2023-03-23T09:26:39;14.60;69.70
25438;DHT22;13364;49.084;9.978;2023-03-23T09:29:05;14.70;69.10
25438;DHT22;13364;49.084;9.978;2023-03-23T09:31:31;14.60;68.60
25438;DHT22;13364;49.084;9.978;2023-03-23T09:33:58;14.60;69.20
25438;DHT22;13364;49.084;9.978;2023-03-23T09:36:25;14.60;70.60
25438;DHT22;13364;49.084;9.978;2023-03-23T09:38:57;14.50;69.40
25438;DHT22;13364;49.084;9.978;2023-03-23T09:44:57;14.50;69.80
25438;DHT22;13364;49.084;9.978;2023-03-23T09:48:03;14.50;69.70
25438;DHT22;13364;49.084;9.978;2023-03-23T09:50:31;14.40;69.70
25438;DHT22;13364;49.084;9.978;2023-03-23T09:53:21;14.30;70.50
25438;DHT22;13364;49.084;9.978;2023-03-23T09:55:48;14.20;70.90
25438;DHT22;13364;49.084;9.978;2023-03-23T09:58:43;14.10;72.00
25438;DHT22;13364;49.084;9.978;2023-03-23T10:01:31;14.00;72.00
25438;DHT22;13364;49.084;9.978;2023-03-23T10:04:18;13.90;71.80
25438;DHT22;13364;49.084;9.978;2023-03-23T10:06:47;13.90;72.30
25438;DHT22;13364;49.084;9.978;2023-03-23T10:09:17;13.90;72.70
25438;DHT22;13364;49.084;9.978;2023-03-23T10:11:48;13.90;72.80
25438;DHT22;13364;49.084;9.978;2023-03-23T10:17:54;13.90;73.10
25438;DHT22;13364;49.084;9.978;2023-03-23T10:20:37;13.80;73.70
25438;DHT22;13364;49.084;9.978;2023-03-23T10:23:56;13.80;73.50
25438;DHT22;13364;49.084;9.978;2023-03-23T10:29:16;13.70;74.50
25438;DHT22;13364;49.084;9.978;2023-03-23T10:31:55;13.70;74.70
25438;DHT22;13364;49.084;9.978;2023-03-23T10:34:35;13.60;74.60
25438;DHT22;13364;49.084;9.978;2023-03-23T10:37:17;13.60;75.10
25438;DHT22;13364;49.084;9.978;2023-03-23T10:42:50;13.60;75.80
25438;DHT22;13364;49.084;9.978;2023-03-23T10:45:18;13.60;76.20
25438;DHT22;13364;49.084;9.978;2023-03-23T10:52:36;13.60;75.80
25438;DHT22;13364;49.084;9.978;2023-03-23T10:57:34;13.50;76.40
25438;DHT22;13364;49.084;9.978;2023-03-23T11:05:53;13.60;78.10
25438;DHT22;13364;49.084;9.978;2023-03-23T11:08:22;13.80;77.30
25438;DHT22;13364;49.084;9.978;2023-03-23T11:13:22;13.90;76.30
25438;DHT22;13364;49.084;9.978;2023-03-23T11:15:50;13.90;75.70
25438;DHT22;13364;49.084;9.978;2023-03-23T11:21:54;14.00;76.50
25438;DHT22;13364;49.084;9.978;2023-03-23T11:24:25;14.00;75.90
25438;DHT22;13364;49.084;9.978;2023-03-23T11:26:52;14.10;76.20
25438;DHT22;13364;49.084;9.978;2023-03-23T11:29:24;14.20;75.50
25438;DHT22;13364;49.084;9.978;2023-03-23T11:31:53;14.30;76.20
25438;DHT22;13364;49.084;9.978;2023-03-23T11:34:35;14.30;75.60
25438;DHT22;13364;49.084;9.978;2023-03-23T11:37:12;14.30;75.70
25438;DHT22;13364;49.084;9.978;2023-03-23T11:45:34;14.60;74.90
25438;DHT22;13364;49.084;9.978;2023-03-23T11:53:58;14.90;74.50
25438;DHT22;13364;49.084;9.978;2023-03-23T11:56:35;15.00;74.20
25438;DHT22;13364;49.084;9.978;2023-03-23T11:59:03;15.00;74.50
25438;DHT22;13364;49.084;9.978;2023-03-23T12:04:37;14.90;75.00
25438;DHT22;13364;49.084;9.978;2023-03-23T12:11:07;15.00;78.70
25438;DHT22;13364;49.084;9.978;2023-03-23T12:25:09;15.10;79.90
25438;DHT22;13364;49.084;9.978;2023-03-23T12:27:57;15.20;77.90
25438;DHT22;13364;49.084;9.978;2023-03-23T12:30:50;15.10;77.60
25438;DHT22;13364;49.084;9.978;2023-03-23T12:40:11;15.10;76.70
25438;DHT22;13364;49.084;9.978;2023-03-23T12:42:43;15.00;76.70
25438;DHT22;13364;49.084;9.978;2023-03-23T12:47:58;14.80;77.30
25438;DHT22;13364;49.084;9.978;2023-03-23T12:51:09;14.80;77.40
25438;DHT22;13364;49.084;9.978;2023-03-23T12:53:41;14.70;77.70
25438;DHT22;13364;49.084;9.978;2023-03-23T12:56:11;14.60;77.90
25438;DHT22;13364;49.084;9.978;2023-03-23T12:59:17;14.50;78.10
25438;DHT22;13364;49.084;9.978;2023-03-23T13:08:00;14.40;78.50
25438;DHT22;13364;49.084;9.978;2023-03-23T13:10:35;14.40;79.10
25438;DHT22;13364;49.084;9.978;2023-03-23T13:13:02;14.40;77.70
25438;DHT22;13364;49.084;9.978;2023-03-23T13:18:35;14.40;78.80
25438;DHT22;13364;49.084;9.978;2023-03-23T13:21:20;14.50;77.70
25438;DHT22;13364;49.084;9.978;2023-03-23T13:23:55;14.40;77.40
25438;DHT22;13364;49.084;9.978;2023-03-23T13:26:23;14.40;77.80
25438;DHT22;13364;49.084;9.978;2023-03-23T13:28:58;14.40;77.70
25438;DHT22;13364;49.084;9.978;2023-03-23T13:31:30;14.50;77.80
25438;DHT22;13364;49.084;9.978;2023-03-23T13:34:15;14.50;78.00
25438;DHT22;13364;49.084;9.978;2023-03-23T13:36:44;14.50;78.20
25438;DHT22;13364;49.084;9.978;2023-03-23T13:39:38;14.50;77.80
25438;DHT22;13364;49.084;9.978;2023-03-23T13:50:56;14.80;76.70
25438;DHT22;13364;49.084;9.978;2023-03-23T13:53:31;14.80;76.50
25438;DHT22;13364;49.084;9.978;2023-03-23T13:59:31;14.70;76.90
25438;DHT22;13364;49.084;9.978;2023-03-23T14:02:30;14.60;77.30
25438;DHT22;13364;49.084;9.978;2023-03-23T14:04:57;14.60;77.30
25438;DHT22;13364;49.084;9.978;2023-03-23T14:10:55;14.70;76.90
25438;DHT22;13364;49.084;9.978;2023-03-23T14:19:02;14.40;78.20
25438;DHT22;13364;49.084;9.978;2023-03-23T14:26:15;14.30;78.30
25438;DHT22;13364;49.084;9.978;2023-03-23T14:28:44;14.20;78.50
25438;DHT22;13364;49.084;9.978;2023-03-23T14:31:23;14.10;78.10
25438;DHT22;13364;49.084;9.978;2023-03-23T14:33:50;14.10;78.80
25438;DHT22;13364;49.084;9.978;2023-03-23T14:36:26;14.00;79.30
25438;DHT22;13364;49.084;9.978;2023-03-23T14:39:05;14.10;79.20
25438;DHT22;13364;49.084;9.978;2023-03-23T14:41:34;14.10;78.80
25438;DHT22;13364;49.084;9.978;2023-03-23T14:44:02;14.00;78.90
25438;DHT22;13364;49.084;9.978;2023-03-23T14:46:30;14.00;79.30
25438;DHT22;13364;49.084;9.978;2023-03-23T14:49:03;14.10;79.10
25438;DHT22;13364;49.084;9.978;2023-03-23T14:51:30;14.10;79.30
25438;DHT22;13364;49.084;9.978;2023-03-23T14:53:58;14.20;79.30
25438;DHT22;13364;49.084;9.978;2023-03-23T14:56:33;14.40;78.60
25438;DHT22;13364;49.084;9.978;2023-03-23T14:59:04;14.50;78.40
25438;DHT22;13364;49.084;9.978;2023-03-23T15:01:32;14.60;78.10
25438;DHT22;13364;49.084;9.978;2023-03-23T15:06:34;14.80;77.70
25438;DHT22;13364;49.084;9.978;2023-03-23T15:09:13;14.80;77.70
25438;DHT22;13364;49.084;9.978;2023-03-23T15:11:41;14.80;77.20
25438;DHT22;13364;49.084;9.978;2023-03-23T15:14:20;14.90;77.40
25438;DHT22;13364;49.084;9.978;2023-03-23T15:16:50;15.00;76.70
25438;DHT22;13364;49.084;9.978;2023-03-23T15:21:53;15.10;76.00
25438;DHT22;13364;49.084;9.978;2023-03-23T15:27:32;15.20;75.10
25438;DHT22;13364;49.084;9.978;2023-03-23T15:30:00;15.30;75.10
25438;DHT22;13364;49.084;9.978;2023-03-23T15:32:39;15.40;74.90
25438;DHT22;13364;49.084;9.978;2023-03-23T15:35:20;15.40;73.80
25438;DHT22;13364;49.084;9.978;2023-03-23T15:37:49;15.30;73.70
25438;DHT22;13364;49.084;9.978;2023-03-23T15:40:18;15.30;73.80
25438;DHT22;13364;49.084;9.978;2023-03-23T15:42:45;15.10;74.50
25438;DHT22;13364;49.084;9.978;2023-03-23T15:47:46;15.00;75.30
25438;DHT22;13364;49.084;9.978;2023-03-23T15:50:18;15.00;75.40
25438;DHT22;13364;49.084;9.978;2023-03-23T15:52:46;15.10;75.20
25438;DHT22;13364;49.084;9.978;2023-03-23T15:55:27;15.20;75.70
25438;DHT22;13364;49.084;9.978;2023-03-23T15:57:57;15.20;76.30
25438;DHT22;13364;49.084;9.978;2023-03-23T16:00:26;15.30;76.70
25438;DHT22;13364;49.084;9.978;2023-03-23T16:02:58;15.30;76.30
25438;DHT22;13364;49.084;9.978;2023-03-23T16:05:26;15.30;76.30
25438;DHT22;13364;49.084;9.978;2023-03-23T16:07:54;15.40;75.50
25438;DHT22;13364;49.084;9.978;2023-03-23T16:10:23;15.40;74.50
25438;DHT22;13364;49.084;9.978;2023-03-23T16:16:24;15.30;74.30
25438;DHT22;13364;49.084;9.978;2023-03-23T16:18:53;15.20;74.50
25438;DHT22;13364;49.084;9.978;2023-03-23T16:21:20;15.20;74.80
25438;DHT22;13364;49.084;9.978;2023-03-23T16:23:48;15.20;75.20
25438;DHT22;13364;49.084;9.978;2023-03-23T16:26:16;15.20;75.20
25438;DHT22;13364;49.084;9.978;2023-03-23T16:28:43;15.20;75.40
25438;DHT22;13364;49.084;9.978;2023-03-23T16:31:11;15.20;75.60
25438;DHT22;13364;49.084;9.978;2023-03-23T16:33:38;15.20;76.30
25438;DHT22;13364;49.084;9.978;2023-03-23T16:36:06;15.20;77.10
25438;DHT22;13364;49.084;9.978;2023-03-23T16:38:33;15.20;77.80
25438;DHT22;13364;49.084;9.978;2023-03-23T16:41:17;15.10;78.30
25438;DHT22;13364;49.084;9.978;2023-03-23T16:43:44;15.10;79.10
25438;DHT22;13364;49.084;9.978;2023-03-23T16:46:12;15.00;79.60
25438;DHT22;13364;49.084;9.978;2023-03-23T16:48:40;15.00;80.00
25438;DHT22;13364;49.084;9.978;2023-03-23T16:51:07;14.90;80.50
25438;DHT22;13364;49.084;9.978;2023-03-23T16:53:34;14.90;80.90
25438;DHT22;13364;49.084;9.978;2023-03-23T16:56:03;14.90;81.10
25438;DHT22;13364;49.084;9.978;2023-03-23T16:58:30;14.90;81.10
25438;DHT22;13364;49.084;9.978;2023-03-23T17:00:57;14.80;81.20
25438;DHT22;13364;49.084;9.978;2023-03-23T17:03:32;14.70;80.20
25438;DHT22;13364;49.084;9.978;2023-03-23T17:06:00;14.60;80.30
25438;DHT22;13364;49.084;9.978;2023-03-23T17:08:27;14.60;80.50
25438;DHT22;13364;49.084;9.978;2023-03-23T17:10:54;14.50;81.10
25438;DHT22;13364;49.084;9.978;2023-03-23T17:13:22;14.40;81.80
25438;DHT22;13364;49.084;9.978;2023-03-23T17:15:53;14.30;82.40
25438;DHT22;13364;49.084;9.978;2023-03-23T17:18:21;14.20;83.20
25438;DHT22;13364;49.084;9.978;2023-03-23T17:20:49;14.00;83.80
25438;DHT22;13364;49.084;9.978;2023-03-23T17:23:18;13.80;83.70
25438;DHT22;13364;49.084;9.978;2023-03-23T17:25:46;13.70;84.40
25438;DHT22;13364;49.084;9.978;2023-03-23T17:28:13;13.40;83.20
25438;DHT22;13364;49.084;9.978;2023-03-23T17:30:42;13.20;82.60
25438;DHT22;13364;49.084;9.978;2023-03-23T17:33:10;13.10;83.00
25438;DHT22;13364;49.084;9.978;2023-03-23T17:35:37;13.10;82.30
25438;DHT22;13364;49.084;9.978;2023-03-23T17:38:04;13.00;82.10
25438;DHT22;13364;49.084;9.978;2023-03-23T17:40:32;13.00;81.30
25438;DHT22;13364;49.084;9.978;2023-03-23T17:42:59;12.80;81.10
25438;DHT22;13364;49.084;9.978;2023-03-23T17:45:26;12.80;81.00
25438;DHT22;13364;49.084;9.978;2023-03-23T17:47:53;12.70;81.10
25438;DHT22;13364;49.084;9.978;2023-03-23T17:50:21;12.70;80.70
25438;DHT22;13364;49.084;9.978;2023-03-23T17:52:48;12.60;80.30
25438;DHT22;13364;49.084;9.978;2023-03-23T17:55:15;12.60;79.90
25438;DHT22;13364;49.084;9.978;2023-03-23T17:57:43;12.60;80.20
25438;DHT22;13364;49.084;9.978;2023-03-23T18:00:12;12.60;79.60
25438;DHT22;13364;49.084;9.978;2023-03-23T18:02:43;12.60;78.90
25438;DHT22;13364;49.084;9.978;2023-03-23T18:08:45;12.60;78.40
25438;DHT22;13364;49.084;9.978;2023-03-23T18:11:13;12.60;77.80
25438;DHT22;13364;49.084;9.978;2023-03-23T18:13:40;12.60;78.10
25438;DHT22;13364;49.084;9.978;2023-03-23T18:16:08;12.60;77.50
25438;DHT22;13364;49.084;9.978;2023-03-23T18:18:35;12.60;77.50
25438;DHT22;13364;49.084;9.978;2023-03-23T18:21:08;12.70;77.10
25438;DHT22;13364;49.084;9.978;2023-03-23T18:23:37;12.70;77.30
25438;DHT22;13364;49.084;9.978;2023-03-23T18:26:19;12.80;77.20
25438;DHT22;13364;49.084;9.978;2023-03-23T18:28:52;12.80;76.30
25438;DHT22;13364;49.084;9.978;2023-03-23T18:31:20;12.70;76.30
25438;DHT22;13364;49.084;9.978;2023-03-23T18:33:49;12.70;76.40
25438;DHT22;13364;49.084;9.978;2023-03-23T18:36:19;12.70;76.10
25438;DHT22;13364;49.084;9.978;2023-03-23T18:38:47;12.70;76.20